HECA/CAI METAR and TAF weather

Enter ICAO airport designator
Station Type Date Time Source
HECA METAR 2019/06/26 09:30 UTC NOAA

HECA 260930Z 02006KT CAVOK 37/11 Q1010 NOSIG


Station Type Date Time Source
HECA Decoded METAR 2019/06/26 09:30 UTC NOAA

Cairo Airport, Egypt (HECA) 30-08N 031-24E 74M
Jun 26, 2019 - 05:30 AM EDT / 2019.06.26 0930 UTC
Wind: from the NNE (020 degrees) at 7 MPH (6 KT):0
Visibility: greater than 7 mile(s):0
Temperature: 98 F (37 C)
Heat index: 95.0 F (35.0 C):1
Dew Point: 51 F (11 C)
Relative Humidity: 20%
Pressure (altimeter): 29.83 in. Hg (1010 hPa)
ob: HECA 260930Z 02006KT CAVOK 37/11 Q1010 NOSIG
cycle: 9

Station Type Date Time Source
HECA TAF 2019/06/26 06:48 UTC NOAA

TAF HECA 260500Z 2606/2712 05008KT CAVOK
TEMPO 2606/2612 VRB03KT 6000 NSC

Example: see airport list